• Join FlightAware (Why Join?)
  • Login
  • US Flag 
12:14AM EDT


 

Airport Tracker/Info


-or-


 

Live Flight TrackerFlight Track Log ✈ JIA2408 ✈ 30-Jun-2013 ✈ KMGM - KCLT

Flight Track Log - Related Links

Times and Time Zones

All times are in EDT time to prevent confusion due to time zone crossing. See the JIA2408 flight status page for this flight to view local times or setup timezone preferences in your user account.

Time Position Orientation Groundspeed Altitude Reporting Facility
EDT Latitude Longitude Course Direction KTS MPH feet Rate Location/Type
01:03PM 32.3122 -86.3047 49° Northeast 218 251 3,500  Level Atlanta Center
01:04PM 32.3550 -86.2492 48° Northeast 240 276 5,800 2,340 Climbing Atlanta Center
01:05PM 32.4934 -86.0944 55° Northeast  Level FlightAware Approximate
01:05PM 32.4000 -86.1889 49° Northeast 290 334 8,200  Level Atlanta Center
01:06PM 32.5547 -85.9939 47° Northeast  Level FlightAware Approximate
01:06PM 32.4556 -86.1114 50° Northeast 296 341 10,300  Level Atlanta Center
01:07PM 32.6258 -85.9027 47° Northeast  Level FlightAware Approximate
01:07PM 32.5133 -86.0292 50° Northeast 308 354 12,900  Level Atlanta Center
01:08PM 32.6916 -85.8065 56° Northeast  Level FlightAware Approximate
01:08PM 32.5731 -85.9442 50° Northeast 319 367 14,700  Level Atlanta Center
01:09PM 32.7531 -85.7061 49° Northeast  Level FlightAware Approximate
01:09PM 32.6369 -85.8542 50° Northeast 337 388 16,500  Level Atlanta Center
01:10PM 32.6947 -85.7592 54° Northeast 349 402 18,400 1,800 Climbing Atlanta Center
01:11PM 32.7422 -85.6539 62° Northeast 354 407 20,100 1,380 Climbing Atlanta Center
01:13PM 32.7990 -85.5492 57° Northeast  Level FlightAware Approximate
01:13PM 32.8431 -85.4308 57° Northeast 370 426 22,600  Level Atlanta Center
01:14PM 32.8964 -85.3153 61° Northeast 383 441 23,700 1,140 Climbing Atlanta Center
01:15PM 32.9497 -85.1972 62° Northeast 388 447 24,900 1,080 Climbing Atlanta Center
01:17PM 33.0080 -85.0928 68° East  Level FlightAware Approximate
01:17PM 33.0583 -84.9483 68° East 389 448 27,000  Level Atlanta Center
01:18PM 33.1133 -84.8275 61° Northeast 402 463 27,000  Level Atlanta Center
01:19PM 33.1683 -84.7014 62° Northeast 409 471 27,000  Level Atlanta Center
01:20PM 33.2211 -84.5728 64° Northeast 422 486 27,000  Level Atlanta Center
01:21PM 33.2758 -84.4514 62° Northeast 422 486 27,000  Level Atlanta Center
01:22PM 33.3306 -84.3247 63° Northeast 422 486 27,000  Level Atlanta Center
01:23PM 33.3850 -84.2006 62° Northeast 422 486 27,000  Level Atlanta Center
01:24PM 33.4394 -84.0786 62° Northeast 416 479 27,000  Level Atlanta Center
01:25PM 33.4917 -83.9567 63° Northeast 411 473 27,000  Level Atlanta Center
01:27PM 33.5389 -83.8445 64° Northeast  Level FlightAware Approximate
01:27PM 33.5975 -83.7122 64° Northeast 411 473 27,000  Level Atlanta Center
01:28PM 33.6514 -83.5872 63° Northeast 411 473 27,000  Level Atlanta Center
01:29PM 33.6992 -83.4769 62° Northeast 411 473 27,000  Level Atlanta Center
01:30PM 33.7506 -83.3542 63° Northeast 411 473 27,000  Level Atlanta Center
01:31PM 33.8019 -83.2314 63° Northeast 411 473 27,000  Level Atlanta Center
01:32PM 33.8553 -83.1083 62° Northeast 411 473 27,000  Level Atlanta Center
01:33PM 33.9086 -82.9850 62° Northeast 410 472 27,000  Level Atlanta Center
01:34PM 33.9597 -82.8617 63° Northeast 411 473 27,000  Level Atlanta Center
01:35PM 34.0128 -82.7381 63° Northeast 405 466 27,000  Level Atlanta Center
01:36PM 34.0697 -82.6044 63° Northeast 410 472 27,000 -360 Level Atlanta Center
01:37PM 34.1183 -82.4781 65° Northeast 410 472 26,300 -1,080 Descending Atlanta Center
01:38PM 34.1689 -82.3567 63° Northeast 404 465 24,900 -1,320 Descending Atlanta Center
01:39PM 34.2194 -82.2375 63° Northeast 404 465 23,700 -1,200 Descending Atlanta Center
01:40PM 34.2719 -82.1283 49° Northeast 386 444 22,500 -1,200 Descending Atlanta Center
01:41PM 34.2723 -82.1194 49° Northeast  Level FlightAware Approximate
01:41PM 34.3478 -82.0336 46° Northeast 380 437 21,300  Level Atlanta Center
01:42PM 34.4253 -81.9361 46° Northeast 385 443 20,100 -1,620 Descending Atlanta Center
01:43PM 34.4986 -81.8383 48° Northeast 390 449 18,100 -2,100 Descending Atlanta Center
01:44PM 34.5703 -81.7483 46° Northeast 383 441 15,900 -1,980 Descending Atlanta Center
01:45PM 34.6272 -81.6786 45° Northeast 377 434 14,200 -1,920 Descending Atlanta Center
01:46PM 34.7067 -81.5803 45° Northeast 350 403 12,100 -1,020 Descending Atlanta Center
01:48PM 34.7861 -81.4767 47° Northeast 324 373 12,000 -60 Descending Atlanta Center
01:48PM 34.8347 -81.4144 46° Northeast 335 386 12,000  Level Atlanta Center
01:49PM 34.9017 -81.3264 47° Northeast 335 386 12,000  Level Atlanta Center
01:50PM 34.9686 -81.2406 46° Northeast 340 391 12,000 -240 Level Atlanta Center
01:52PM 35.0456 -81.1414 47° Northeast 348 400 11,600 -660 Descending Atlanta Center
01:52PM 35.0900 -81.0817 48° Northeast 340 391 10,700 -1,260 Descending Atlanta Center
01:53PM 35.1711 -81.0661 North 286 329 9,400 -1,680 Descending Atlanta Center
01:54PM 35.2528 -81.0758 354° North 286 329 7,400 -2,040 Descending Atlanta Center
01:55PM 35.3300 -81.0806 357° North 291 335 5,400 -1,740 Descending Atlanta Center
01:57PM 35.3739 -80.9950 58° Northeast 234 269 3,300 -1,560 Descending Atlanta Center